Fedora — SLKU — position and weather

sailwx.info

Track history (hours):
 
Tides and Currents Weather Stations Pressure Air Temp Water Temp Dewpoint Dewpoint Depression Visibility Wind Speed Wind Dir Waves Ship Positions

Fedora

Last reported at 2016-Jan-31 04:08 UTC. Time now 2016-Feb-09 13:53 UTC.
Position N 27°30' W 015°16'.
Warning: this ship's position is 9 days out of date.

Length 228 m; draft 9.4 m.

Type: Cargo ship. MMSI: 266259000.

Date/timePositionNaut miles runAvg speedWind from/ knotsBaromVisibWave heightAir tempDewpointWater temp
2016-Jan-31 04:08N 27°30' W 015°16'916.4
2016-Jan-31 03:34N 27°38' W 015°12'1616.3
2016-Jan-31 02:34N 27°54' W 015°06'1616.4
2016-Jan-31 01:34N 28°09' W 014°60'1616.4
2016-Jan-31 00:33N 28°25' W 014°53'1616.3
2016-Jan-30 23:34N 28°40' W 014°48'1615.9
2016-Jan-30 22:32N 28°56' W 014°44'2016.0
2016-Jan-30 21:16N 29°16' W 014°38'1115.7
2016-Jan-30 20:33N 29°26' W 014°34'1515.4
2016-Jan-30 19:33N 29°41' W 014°30'1615.7
2016-Jan-30 18:33N 29°57' W 014°25'1615.7
2016-Jan-30 17:32N 30°12' W 014°20'66016.0
2016-Jan-29 00:18N 40°49' W 010°49'1417.2
2016-Jan-28 23:30N 41°02' W 010°44'3316.4
2016-Jan-28 21:30N 41°34' W 010°34'1616.6
2016-Jan-28 20:33N 41°49' W 010°28'63313.8
2016-Jan-26 22:32N 50°22' W 001°31'10 9.7
2016-Jan-26 21:33N 50°26' W 001°17'10 9.7
2016-Jan-26 20:33N 50°31' W 001°04'1110.8
2016-Jan-26 19:33N 50°40' W 000°55'1212.0
2016-Jan-26 18:33N 50°46' W 001°11'9 9.4
2016-Jan-26 17:33N 50°52' W 001°22'2 0.1
2016-Jan-26 03:33N 50°53' W 001°24'6 6.2
2016-Jan-26 02:33N 50°49' W 001°18'1212.2
2016-Jan-26 01:34N 50°43' W 001°00'1313.0
2016-Jan-26 00:34N 50°31' W 000°51'3917.2
2016-Jan-25 22:19N 49°56' W 000°28'1317.2
2016-Jan-25 21:34N 49°44' W 000°19'1616.0
2016-Jan-25 20:33N 49°32' W 000°04'9 9.4
2016-Jan-25 19:33N 49°28' E 000°10'1 0.6
2016-Jan-25 18:33N 49°29' E 000°11'1 1.1
2016-Jan-25 17:32N 49°28' E 000°13'0 0.0
2016-Jan-25 16:32N 49°28' E 000°13'0 0.0
2016-Jan-25 15:32N 49°28' E 000°13'0 0.0
2016-Jan-25 14:32N 49°28' E 000°13'0 0.0
2016-Jan-25 13:32N 49°28' E 000°13'0 0.0
2016-Jan-25 12:32N 49°28' E 000°13'0 0.0
2016-Jan-25 11:32N 49°28' E 000°13'0 0.0
2016-Jan-25 10:32N 49°28' E 000°13'0 0.0
2016-Jan-25 09:32N 49°28' E 000°13'1 1.5
2016-Jan-25 08:34N 49°29' E 000°10'2 2.0
2016-Jan-25 07:34N 49°28' E 000°07'1110.6
2016-Jan-25 06:33N 49°32' W 000°08'4 4.5
2016-Jan-25 05:33N 49°35' W 000°12'6 6.3
2016-Jan-25 04:33N 49°42' W 000°11'5 4.9
2016-Jan-25 03:33N 49°47' W 000°10'7 6.9
2016-Jan-25 02:33N 49°54' W 000°10'3210.8
2016-Jan-24 23:33N 50°25' W 000°02'1110.5
2016-Jan-24 22:31N 50°31' E 000°13'1111.5
2016-Jan-24 21:33N 50°34' E 000°29'1010.3
2016-Jan-24 20:33N 50°39' E 000°43'1010.1
2016-Jan-24 19:33N 50°46' E 000°55'1312.6
2016-Jan-24 18:34N 50°55' E 001°10'1515.2
2016-Jan-24 17:34N 51°05' E 001°28'1413.6
2016-Jan-24 16:33N 51°13' E 001°44'1211.9
2016-Jan-24 15:34N 51°23' E 001°57'10 9.7
2016-Jan-24 14:33N 51°22' E 002°12'1110.7
2016-Jan-24 13:34N 51°23' E 002°29'1211.1
2016-Jan-24 12:26N 51°22' E 002°49'1010.9
2016-Jan-24 11:33N 51°25' E 003°04'7 7.1
2016-Jan-24 10:33N 51°20' E 003°13'1 1.1
2016-Jan-24 09:33N 51°19' E 003°14'0 0.0
2016-Jan-24 08:33N 51°19' E 003°14'0 0.0
2016-Jan-24 07:33N 51°19' E 003°14'0 0.0
2016-Jan-24 06:33N 51°19' E 003°14'0 0.0
2016-Jan-24 05:33N 51°19' E 003°14'0 0.0
2016-Jan-24 04:33N 51°19' E 003°14'0 0.0
2016-Jan-24 03:30N 51°19' E 003°14'0 0.0
2016-Jan-24 02:33N 51°19' E 003°14'0 0.0
2016-Jan-24 01:33N 51°19' E 003°14'0 0.0
2016-Jan-24 00:33N 51°19' E 003°14'0 0.0
2016-Jan-23 23:30N 51°19' E 003°14'0 0.0
2016-Jan-23 22:30N 51°19' E 003°14'0 0.0
2016-Jan-23 21:30N 51°19' E 003°14'0 0.0
2016-Jan-23 20:33N 51°19' E 003°14'0 0.0
2016-Jan-23 19:33N 51°19' E 003°14'0 0.0
2016-Jan-23 18:33N 51°19' E 003°14'0 0.0
2016-Jan-23 17:33N 51°19' E 003°14'0 0.0
2016-Jan-23 16:33N 51°19' E 003°14'0 0.0
2016-Jan-23 15:33N 51°19' E 003°14'0 0.0
2016-Jan-23 14:30N 51°19' E 003°14'0 0.0
2016-Jan-23 13:30N 51°19' E 003°14'0 0.0
2016-Jan-23 12:33N 51°19' E 003°14'0 0.0
2016-Jan-23 11:33N 51°19' E 003°14'0 0.0
2016-Jan-23 10:33N 51°19' E 003°14'0 0.0
2016-Jan-23 09:33N 51°19' E 003°14'0 0.0
2016-Jan-23 08:33N 51°19' E 003°14'0 0.0
2016-Jan-23 07:33N 51°19' E 003°14'0 0.0
2016-Jan-23 06:30N 51°19' E 003°14'0 0.0
2016-Jan-23 05:33N 51°19' E 003°14'0 0.0
2016-Jan-23 04:30N 51°19' E 003°14'0 0.0
2016-Jan-23 03:33N 51°19' E 003°14'0 0.0
2016-Jan-23 02:33N 51°19' E 003°14'0 0.0
2016-Jan-23 01:33N 51°19' E 003°14'0 0.0
2016-Jan-23 00:33N 51°19' E 003°14'0 0.0
2016-Jan-22 23:30N 51°19' E 003°14'0 0.0
2016-Jan-22 22:33N 51°19' E 003°14'0 0.0
2016-Jan-22 21:33N 51°19' E 003°14'0 0.0
2016-Jan-22 20:33N 51°19' E 003°14'0 0.0
2016-Jan-22 19:33N 51°19' E 003°14'0 0.0
2016-Jan-22 18:33N 51°19' E 003°14'0 0.0
2016-Jan-22 17:33N 51°19' E 003°14'0 0.0
2016-Jan-22 16:33N 51°19' E 003°14'0 0.0
2016-Jan-22 15:33N 51°19' E 003°14'0 0.0
2016-Jan-22 14:33N 51°19' E 003°14'0 0.0
2016-Jan-22 13:30N 51°19' E 003°14'0 0.0
2016-Jan-22 12:33N 51°19' E 003°14'0 0.0
2016-Jan-22 11:30N 51°19' E 003°14'0 0.0
2016-Jan-22 10:30N 51°19' E 003°14'0 0.0
2016-Jan-22 09:30N 51°19' E 003°14'0 0.0
2016-Jan-22 08:33N 51°19' E 003°14'0 0.0
2016-Jan-22 07:30N 51°19' E 003°14'0 0.0
2016-Jan-22 06:33N 51°19' E 003°14'0 0.0
2016-Jan-22 05:30N 51°19' E 003°14'0 0.0
2016-Jan-22 04:30N 51°19' E 003°14'0 0.0
2016-Jan-22 03:30N 51°19' E 003°14'0 0.0
2016-Jan-22 02:30N 51°19' E 003°14'0 0.0
2016-Jan-22 01:33N 51°19' E 003°14'0 0.0
2016-Jan-22 00:30N 51°19' E 003°14'0 0.0
2016-Jan-21 23:30N 51°19' E 003°14'0 0.0
2016-Jan-21 22:30N 51°19' E 003°14'0 0.0
2016-Jan-21 21:24N 51°19' E 003°14'0 0.0
2016-Jan-21 20:30N 51°19' E 003°14'0 0.0
2016-Jan-21 19:30N 51°19' E 003°14'0 0.0
2016-Jan-21 18:24N 51°19' E 003°14'0 0.0
2016-Jan-21 17:33N 51°19' E 003°14'0 0.0
2016-Jan-21 16:30N 51°19' E 003°14'0 0.0
2016-Jan-21 15:30N 51°19' E 003°14'0 0.0
2016-Jan-21 14:33N 51°19' E 003°14'0 0.0
2016-Jan-21 13:33N 51°19' E 003°14'0 0.0
2016-Jan-21 12:30N 51°19' E 003°14'0 0.0
2016-Jan-21 11:30N 51°19' E 003°14'0 0.0
2016-Jan-21 10:33N 51°19' E 003°14'0 0.0
2016-Jan-21 09:33N 51°19' E 003°14'0 0.0
2016-Jan-21 08:33N 51°19' E 003°14'0 0.0
2016-Jan-21 07:33N 51°19' E 003°14'0 0.0
2016-Jan-21 06:33N 51°19' E 003°14'0 0.0
2016-Jan-21 05:33N 51°19' E 003°14'0 0.0
2016-Jan-21 04:33N 51°19' E 003°14'  
Track history (hours):
 
Tides and Currents Weather Stations Pressure Air Temp Water Temp Dewpoint Dewpoint Depression Visibility Wind Speed Wind Dir Waves Ship Positions

Fedora

Last reported at 2016-Jan-31 04:08 UTC. Time now 2016-Feb-09 13:53 UTC.
Position N 27°30' W 015°16'.
Warning: this ship's position is 9 days out of date.

Length 228 m; draft 9.4 m.

Type: Cargo ship. MMSI: 266259000.

Date/timePositionNaut miles runAvg speedWind from/ knotsBaromVisibWave heightAir tempDewpointWater temp
2016-Jan-31 04:08N 27°30' W 015°16'916.4
2016-Jan-31 03:34N 27°38' W 015°12'1616.3
2016-Jan-31 02:34N 27°54' W 015°06'1616.4
2016-Jan-31 01:34N 28°09' W 014°60'1616.4
2016-Jan-31 00:33N 28°25' W 014°53'1616.3
2016-Jan-30 23:34N 28°40' W 014°48'1615.9
2016-Jan-30 22:32N 28°56' W 014°44'2016.0
2016-Jan-30 21:16N 29°16' W 014°38'1115.7
2016-Jan-30 20:33N 29°26' W 014°34'1515.4
2016-Jan-30 19:33N 29°41' W 014°30'1615.7
2016-Jan-30 18:33N 29°57' W 014°25'1615.7
2016-Jan-30 17:32N 30°12' W 014°20'66016.0
2016-Jan-29 00:18N 40°49' W 010°49'1417.2
2016-Jan-28 23:30N 41°02' W 010°44'3316.4
2016-Jan-28 21:30N 41°34' W 010°34'1616.6
2016-Jan-28 20:33N 41°49' W 010°28'63313.8
2016-Jan-26 22:32N 50°22' W 001°31'10 9.7
2016-Jan-26 21:33N 50°26' W 001°17'10 9.7
2016-Jan-26 20:33N 50°31' W 001°04'1110.8
2016-Jan-26 19:33N 50°40' W 000°55'1212.0
2016-Jan-26 18:33N 50°46' W 001°11'9 9.4
2016-Jan-26 17:33N 50°52' W 001°22'2 0.1
2016-Jan-26 03:33N 50°53' W 001°24'6 6.2
2016-Jan-26 02:33N 50°49' W 001°18'1212.2
2016-Jan-26 01:34N 50°43' W 001°00'1313.0
2016-Jan-26 00:34N 50°31' W 000°51'3917.2
2016-Jan-25 22:19N 49°56' W 000°28'1317.2
2016-Jan-25 21:34N 49°44' W 000°19'1616.0
2016-Jan-25 20:33N 49°32' W 000°04'9 9.4
2016-Jan-25 19:33N 49°28' E 000°10'1 0.6
2016-Jan-25 18:33N 49°29' E 000°11'1 1.1
2016-Jan-25 17:32N 49°28' E 000°13'0 0.0
2016-Jan-25 16:32N 49°28' E 000°13'0 0.0
2016-Jan-25 15:32N 49°28' E 000°13'0 0.0
2016-Jan-25 14:32N 49°28' E 000°13'0 0.0
2016-Jan-25 13:32N 49°28' E 000°13'0 0.0
2016-Jan-25 12:32N 49°28' E 000°13'0 0.0
2016-Jan-25 11:32N 49°28' E 000°13'0 0.0
2016-Jan-25 10:32N 49°28' E 000°13'0 0.0
2016-Jan-25 09:32N 49°28' E 000°13'1 1.5
2016-Jan-25 08:34N 49°29' E 000°10'2 2.0
2016-Jan-25 07:34N 49°28' E 000°07'1110.6
2016-Jan-25 06:33N 49°32' W 000°08'4 4.5
2016-Jan-25 05:33N 49°35' W 000°12'6 6.3
2016-Jan-25 04:33N 49°42' W 000°11'5 4.9
2016-Jan-25 03:33N 49°47' W 000°10'7 6.9
2016-Jan-25 02:33N 49°54' W 000°10'3210.8
2016-Jan-24 23:33N 50°25' W 000°02'1110.5
2016-Jan-24 22:31N 50°31' E 000°13'1111.5
2016-Jan-24 21:33N 50°34' E 000°29'1010.3
2016-Jan-24 20:33N 50°39' E 000°43'1010.1
2016-Jan-24 19:33N 50°46' E 000°55'1312.6
2016-Jan-24 18:34N 50°55' E 001°10'1515.2
2016-Jan-24 17:34N 51°05' E 001°28'1413.6
2016-Jan-24 16:33N 51°13' E 001°44'1211.9
2016-Jan-24 15:34N 51°23' E 001°57'10 9.7
2016-Jan-24 14:33N 51°22' E 002°12'1110.7
2016-Jan-24 13:34N 51°23' E 002°29'1211.1
2016-Jan-24 12:26N 51°22' E 002°49'1010.9
2016-Jan-24 11:33N 51°25' E 003°04'7 7.1
2016-Jan-24 10:33N 51°20' E 003°13'1 1.1
2016-Jan-24 09:33N 51°19' E 003°14'0 0.0
2016-Jan-24 08:33N 51°19' E 003°14'0 0.0
2016-Jan-24 07:33N 51°19' E 003°14'0 0.0
2016-Jan-24 06:33N 51°19' E 003°14'0 0.0
2016-Jan-24 05:33N 51°19' E 003°14'0 0.0
2016-Jan-24 04:33N 51°19' E 003°14'0 0.0
2016-Jan-24 03:30N 51°19' E 003°14'0 0.0
2016-Jan-24 02:33N 51°19' E 003°14'0 0.0
2016-Jan-24 01:33N 51°19' E 003°14'0 0.0
2016-Jan-24 00:33N 51°19' E 003°14'0 0.0
2016-Jan-23 23:30N 51°19' E 003°14'0 0.0
2016-Jan-23 22:30N 51°19' E 003°14'0 0.0
2016-Jan-23 21:30N 51°19' E 003°14'0 0.0
2016-Jan-23 20:33N 51°19' E 003°14'0 0.0
2016-Jan-23 19:33N 51°19' E 003°14'0 0.0
2016-Jan-23 18:33N 51°19' E 003°14'0 0.0
2016-Jan-23 17:33N 51°19' E 003°14'0 0.0
2016-Jan-23 16:33N 51°19' E 003°14'0 0.0
2016-Jan-23 15:33N 51°19' E 003°14'0 0.0
2016-Jan-23 14:30N 51°19' E 003°14'0 0.0
2016-Jan-23 13:30N 51°19' E 003°14'0 0.0
2016-Jan-23 12:33N 51°19' E 003°14'0 0.0
2016-Jan-23 11:33N 51°19' E 003°14'0 0.0
2016-Jan-23 10:33N 51°19' E 003°14'0 0.0
2016-Jan-23 09:33N 51°19' E 003°14'0 0.0
2016-Jan-23 08:33N 51°19' E 003°14'0 0.0
2016-Jan-23 07:33N 51°19' E 003°14'0 0.0
2016-Jan-23 06:30N 51°19' E 003°14'0 0.0
2016-Jan-23 05:33N 51°19' E 003°14'0 0.0
2016-Jan-23 04:30N 51°19' E 003°14'0 0.0
2016-Jan-23 03:33N 51°19' E 003°14'0 0.0
2016-Jan-23 02:33N 51°19' E 003°14'0 0.0
2016-Jan-23 01:33N 51°19' E 003°14'0 0.0
2016-Jan-23 00:33N 51°19' E 003°14'0 0.0
2016-Jan-22 23:30N 51°19' E 003°14'0 0.0
2016-Jan-22 22:33N 51°19' E 003°14'0 0.0
2016-Jan-22 21:33N 51°19' E 003°14'0 0.0
2016-Jan-22 20:33N 51°19' E 003°14'0 0.0
2016-Jan-22 19:33N 51°19' E 003°14'0 0.0
2016-Jan-22 18:33N 51°19' E 003°14'0 0.0
2016-Jan-22 17:33N 51°19' E 003°14'0 0.0
2016-Jan-22 16:33N 51°19' E 003°14'0 0.0
2016-Jan-22 15:33N 51°19' E 003°14'0 0.0
2016-Jan-22 14:33N 51°19' E 003°14'0 0.0
2016-Jan-22 13:30N 51°19' E 003°14'0 0.0
2016-Jan-22 12:33N 51°19' E 003°14'0 0.0
2016-Jan-22 11:30N 51°19' E 003°14'0 0.0
2016-Jan-22 10:30N 51°19' E 003°14'0 0.0
2016-Jan-22 09:30N 51°19' E 003°14'0 0.0
2016-Jan-22 08:33N 51°19' E 003°14'0 0.0
2016-Jan-22 07:30N 51°19' E 003°14'0 0.0
2016-Jan-22 06:33N 51°19' E 003°14'0 0.0
2016-Jan-22 05:30N 51°19' E 003°14'0 0.0
2016-Jan-22 04:30N 51°19' E 003°14'0 0.0
2016-Jan-22 03:30N 51°19' E 003°14'0 0.0
2016-Jan-22 02:30N 51°19' E 003°14'0 0.0
2016-Jan-22 01:33N 51°19' E 003°14'0 0.0
2016-Jan-22 00:30N 51°19' E 003°14'0 0.0
2016-Jan-21 23:30N 51°19' E 003°14'0 0.0
2016-Jan-21 22:30N 51°19' E 003°14'0 0.0
2016-Jan-21 21:24N 51°19' E 003°14'0 0.0
2016-Jan-21 20:30N 51°19' E 003°14'0 0.0
2016-Jan-21 19:30N 51°19' E 003°14'0 0.0
2016-Jan-21 18:24N 51°19' E 003°14'0 0.0
2016-Jan-21 17:33N 51°19' E 003°14'0 0.0
2016-Jan-21 16:30N 51°19' E 003°14'0 0.0
2016-Jan-21 15:30N 51°19' E 003°14'0 0.0
2016-Jan-21 14:33N 51°19' E 003°14'0 0.0
2016-Jan-21 13:33N 51°19' E 003°14'0 0.0
2016-Jan-21 12:30N 51°19' E 003°14'0 0.0
2016-Jan-21 11:30N 51°19' E 003°14'0 0.0
2016-Jan-21 10:33N 51°19' E 003°14'0 0.0
2016-Jan-21 09:33N 51°19' E 003°14'0 0.0
2016-Jan-21 08:33N 51°19' E 003°14'0 0.0
2016-Jan-21 07:33N 51°19' E 003°14'0 0.0
2016-Jan-21 06:33N 51°19' E 003°14'0 0.0
2016-Jan-21 05:33N 51°19' E 003°14'0 0.0
2016-Jan-21 04:33N 51°19' E 003°14'  

Dump ship's entire track history